AirNav  
 
 420 users online  

74FD Clarksville Airport
Clarksville, Florida, USA


FAA INFORMATION EFFECTIVE 01 FEBRUARY 2018

Location

FAA Identifier: 74FD
Lat/Long: 30-27-50.7010N / 085-10-37.7130W
30-27.845017N / 085-10.628550W
30.4640836 / -85.1771425
(estimated)
Elevation: 90 ft. / 27 m (estimated)
Variation: 01W (1990)
From city: 2 miles N of CLARKSVILLE, FL
Time zone: UTC -6 (UTC -5 during Daylight Saving Time)
Zip code: 32430

Airport Operations

Airport use: Private use. Permission required prior to landing
Activation date: 03/1993
Control tower: no
ARTCC: JACKSONVILLE CENTER
FSS: GAINESVILLE FLIGHT SERVICE STATION
Attendance: UNATNDD
Segmented circle: no

Airport Communications

WX AWOS-AV at F95 (4 nm NE): 119.350 (850-674-1347)

Nearby radio navigation aids

VOR radial/distance  VOR name  Freq  Var
MAIr188/19.5MARIANNA VORTAC114.0000E
HLLr055/33.2HANDLE VORTAC114.3004W

 
NDB name  Hdg/Dist  Freq  Var  ID
SOYYA176/24.632902WSMY ... -- -.--
LYNNE079/32.427804WPFN .--. ..-. -.

Airport Services

Runway Information

Runway 5/23

Dimensions: 2600 x 100 ft. / 792 x 30 m
Surface: turf
RUNWAY 5  RUNWAY 23
Traffic pattern: leftleft

Airport Ownership and Management from official FAA records

Ownership: Privately-owned
Owner: RONALD STITELER
ROUTE 1 BOX 140
ALTHA, FL 32421
Phone 850-674-8385

Instrument Procedures

There are no published instrument procedures at 74FD.

Some nearby airports with instrument procedures:

KMAI - Marianna Municipal Airport (22 nm N)
KPAM - Tyndall Air Force Base (31 nm SW)
1J0 - Tri-County Airport (32 nm NW)
KECP - Northwest Florida Beaches International Airport (33 nm W)
2J9 - Quincy Municipal Airport (33 nm E)
 
Loc | Ops | Rwys | IFR | FBO | Links
Com | Nav | Svcs | Stats | Notes

AirNav Hotels Sweepstakes
 
Area around 74FD (Clarksville Airport)
 
Road maps at: MapQuest Bing Google
 
Aerial photo
No photo
 
Sectional chart

 
Airport distance calculator
Flying to Clarksville Airport? Find the distance to fly.

From to 74FD

Sunrise and sunset
Times for 24-Feb-2018
 Local
(UTC-6)
 Zulu
(UTC)
Morning civil twilight05:4911:49
Sunrise06:1312:13
Sunset17:3523:35
Evening civil twilight17:5923:59

Current date and time
Zulu (UTC)  24-Feb-2018 11:08:24
Local (UTC-6)  24-Feb-2018 05:08:24
 
METAR
KMAI 
22nm N 
241053Z AUTO 00000KT 8SM FEW050 17/16 A3019 RMK AO2 SLP222 T01720161
KPAM 
31nm SW 
241056Z AUTO 12006KT 10SM FEW060 18/18 A3019 RMK AO2 SLP226 T01780178 $
KECP 
33nm W 
241053Z AUTO 00000KT 10SM SCT002 BKN060 17/16 A3018 RMK AO2 SLP230 T01670161
K2J9 
33nm E 
241055Z AUTO 00000KT 10SM SCT033 BKN055 OVC060 14/13 A3022 RMK AO2
KBGE 
41nm NE 
241055Z AUTO 00000KT 10SM CLR 16/16 A3021 RMK AO2
KTLH 
43nm E 
241053Z 00000KT 10SM FEW060 14/13 A3020 RMK AO2 SLP225 T01390133
TAF
KPAM 
31nm SW 
232124Z 2321/2501 16012G18KT 9999 FEW010 SCT030 QNH3016INS BECMG 2405/2406 16009KT 8000 BR SCT015 QNH3016INS BECMG 2411/2412 16009KT 3200 BR SCT010 QNH3016INS BECMG 2417/2418 16012G20KT 9999 NSW SCT040 QNH3016INS TX25/2321Z TN20/2411Z LAST NO AMDS AFT 2403 NEXT 2411
KECP 
33nm W 
240904Z 2409/2506 11004KT 2SM BR SCT050 TEMPO 2409/2412 1/2SM FG OVC002 FM241200 14004KT 4SM BR BKN040 FM241400 18010KT P6SM SCT050
NOTAMs
Click for the latest NOTAMs
NOTAMs are issued by the DoD/FAA and will open in a separate window not controlled by AirNav.

 

 
 

Would you like to see your business listed on this page?

 If your business provides an interesting product or service to pilots, flight crews, aircraft, or users of the Clarksville Airport, you should consider listing it here.  To start the listing process, click on the button below
 
Add a business
 

Other Pages about Clarksville Airport

Update a link
 
Copyright © AirNav, LLC. All rights reserved. Privacy Policy  Contact